sensor_id;sensor_type;location;lat;lon;timestamp;temperature;humidity
7388;DHT22;3735;50.136;11.062;2023-04-24T00:00:19;11.10;99.90
7388;DHT22;3735;50.136;11.062;2023-04-24T00:02:46;11.10;99.90
7388;DHT22;3735;50.136;11.062;2023-04-24T00:05:13;11.10;99.90
7388;DHT22;3735;50.136;11.062;2023-04-24T00:07:41;11.00;99.90
7388;DHT22;3735;50.136;11.062;2023-04-24T00:10:08;11.10;99.90
7388;DHT22;3735;50.136;11.062;2023-04-24T00:12:35;11.10;99.90
7388;DHT22;3735;50.136;11.062;2023-04-24T00:15:02;11.20;99.90
7388;DHT22;3735;50.136;11.062;2023-04-24T00:17:28;11.20;99.90
7388;DHT22;3735;50.136;11.062;2023-04-24T00:19:54;11.10;99.90
7388;DHT22;3735;50.136;11.062;2023-04-24T00:22:30;11.10;99.90
7388;DHT22;3735;50.136;11.062;2023-04-24T00:24:56;11.20;99.90
7388;DHT22;3735;50.136;11.062;2023-04-24T00:27:23;11.20;99.90
7388;DHT22;3735;50.136;11.062;2023-04-24T00:29:49;11.10;99.90
7388;DHT22;3735;50.136;11.062;2023-04-24T00:32:15;11.10;99.90
7388;DHT22;3735;50.136;11.062;2023-04-24T00:34:41;11.20;99.90
7388;DHT22;3735;50.136;11.062;2023-04-24T00:37:07;11.20;99.90
7388;DHT22;3735;50.136;11.062;2023-04-24T00:39:33;11.20;99.90
7388;DHT22;3735;50.136;11.062;2023-04-24T00:41:59;11.20;99.90
7388;DHT22;3735;50.136;11.062;2023-04-24T00:44:26;11.10;99.90
7388;DHT22;3735;50.136;11.062;2023-04-24T00:46:54;11.00;99.90
7388;DHT22;3735;50.136;11.062;2023-04-24T00:49:21;11.00;99.90
7388;DHT22;3735;50.136;11.062;2023-04-24T00:51:47;10.90;99.90
7388;DHT22;3735;50.136;11.062;2023-04-24T00:54:14;10.90;99.90
7388;DHT22;3735;50.136;11.062;2023-04-24T00:56:41;10.80;99.90
7388;DHT22;3735;50.136;11.062;2023-04-24T00:59:09;10.80;99.90
7388;DHT22;3735;50.136;11.062;2023-04-24T01:01:35;10.80;99.90
7388;DHT22;3735;50.136;11.062;2023-04-24T01:04:01;10.80;99.90
7388;DHT22;3735;50.136;11.062;2023-04-24T01:06:28;10.80;99.90
7388;DHT22;3735;50.136;11.062;2023-04-24T01:08:57;10.90;99.90
7388;DHT22;3735;50.136;11.062;2023-04-24T01:11:25;10.90;99.90
7388;DHT22;3735;50.136;11.062;2023-04-24T01:13:51;10.90;99.90
7388;DHT22;3735;50.136;11.062;2023-04-24T01:16:18;10.90;99.90
7388;DHT22;3735;50.136;11.062;2023-04-24T01:18:46;10.90;99.90
7388;DHT22;3735;50.136;11.062;2023-04-24T01:21:14;10.80;99.90
7388;DHT22;3735;50.136;11.062;2023-04-24T01:23:46;10.90;99.90
7388;DHT22;3735;50.136;11.062;2023-04-24T01:26:14;10.90;99.90
7388;DHT22;3735;50.136;11.062;2023-04-24T01:28:41;11.00;99.90
7388;DHT22;3735;50.136;11.062;2023-04-24T01:31:08;10.90;99.90
7388;DHT22;3735;50.136;11.062;2023-04-24T01:33:34;10.90;99.90
7388;DHT22;3735;50.136;11.062;2023-04-24T01:36:00;10.90;99.90
7388;DHT22;3735;50.136;11.062;2023-04-24T01:38:26;11.00;99.90
7388;DHT22;3735;50.136;11.062;2023-04-24T01:40:53;11.00;99.90
7388;DHT22;3735;50.136;11.062;2023-04-24T01:43:19;10.90;99.90
7388;DHT22;3735;50.136;11.062;2023-04-24T01:45:45;11.00;99.90
7388;DHT22;3735;50.136;11.062;2023-04-24T01:48:12;11.00;99.90
7388;DHT22;3735;50.136;11.062;2023-04-24T01:50:38;10.90;99.90
7388;DHT22;3735;50.136;11.062;2023-04-24T01:53:04;10.90;99.90
7388;DHT22;3735;50.136;11.062;2023-04-24T01:55:30;10.90;99.90
7388;DHT22;3735;50.136;11.062;2023-04-24T01:57:56;10.90;99.90
7388;DHT22;3735;50.136;11.062;2023-04-24T02:00:25;10.90;99.90
7388;DHT22;3735;50.136;11.062;2023-04-24T02:02:51;10.90;99.90
7388;DHT22;3735;50.136;11.062;2023-04-24T02:05:17;10.90;99.90
7388;DHT22;3735;50.136;11.062;2023-04-24T02:07:43;10.90;99.90
7388;DHT22;3735;50.136;11.062;2023-04-24T02:10:09;10.90;99.90
7388;DHT22;3735;50.136;11.062;2023-04-24T02:12:35;10.90;99.90
7388;DHT22;3735;50.136;11.062;2023-04-24T02:15:01;10.80;99.90
7388;DHT22;3735;50.136;11.062;2023-04-24T02:17:28;10.70;99.90
7388;DHT22;3735;50.136;11.062;2023-04-24T02:19:54;10.70;99.90
7388;DHT22;3735;50.136;11.062;2023-04-24T02:22:19;10.70;99.90
7388;DHT22;3735;50.136;11.062;2023-04-24T02:24:45;10.70;99.90
7388;DHT22;3735;50.136;11.062;2023-04-24T02:27:11;10.60;99.90
7388;DHT22;3735;50.136;11.062;2023-04-24T02:29:37;10.50;99.90
7388;DHT22;3735;50.136;11.062;2023-04-24T02:32:02;10.50;99.90
7388;DHT22;3735;50.136;11.062;2023-04-24T02:34:28;10.40;99.90
7388;DHT22;3735;50.136;11.062;2023-04-24T02:36:54;10.40;99.90
7388;DHT22;3735;50.136;11.062;2023-04-24T02:39:20;10.30;99.90
7388;DHT22;3735;50.136;11.062;2023-04-24T02:41:46;10.30;99.90
7388;DHT22;3735;50.136;11.062;2023-04-24T02:44:11;10.20;99.90
7388;DHT22;3735;50.136;11.062;2023-04-24T02:46:37;10.20;99.90
7388;DHT22;3735;50.136;11.062;2023-04-24T02:49:03;10.20;99.90
7388;DHT22;3735;50.136;11.062;2023-04-24T02:51:29;10.20;99.90
7388;DHT22;3735;50.136;11.062;2023-04-24T02:53:55;10.20;99.90
7388;DHT22;3735;50.136;11.062;2023-04-24T02:56:21;10.10;99.90
7388;DHT22;3735;50.136;11.062;2023-04-24T02:58:47;10.10;99.90
7388;DHT22;3735;50.136;11.062;2023-04-24T03:01:12;9.90;99.90
7388;DHT22;3735;50.136;11.062;2023-04-24T03:03:39;9.80;99.90
7388;DHT22;3735;50.136;11.062;2023-04-24T03:06:05;9.70;99.90
7388;DHT22;3735;50.136;11.062;2023-04-24T03:08:31;9.70;99.90
7388;DHT22;3735;50.136;11.062;2023-04-24T03:10:57;9.60;99.90
7388;DHT22;3735;50.136;11.062;2023-04-24T03:13:23;9.60;99.90
7388;DHT22;3735;50.136;11.062;2023-04-24T03:15:49;9.50;99.90
7388;DHT22;3735;50.136;11.062;2023-04-24T03:18:15;9.50;99.90
7388;DHT22;3735;50.136;11.062;2023-04-24T03:20:40;9.50;99.90
7388;DHT22;3735;50.136;11.062;2023-04-24T03:23:06;9.50;99.90
7388;DHT22;3735;50.136;11.062;2023-04-24T03:25:32;9.70;99.90
7388;DHT22;3735;50.136;11.062;2023-04-24T03:27:58;10.00;99.90
7388;DHT22;3735;50.136;11.062;2023-04-24T03:30:24;10.10;99.90
7388;DHT22;3735;50.136;11.062;2023-04-24T03:32:49;10.20;99.90
7388;DHT22;3735;50.136;11.062;2023-04-24T03:35:18;10.40;99.90
7388;DHT22;3735;50.136;11.062;2023-04-24T03:37:44;10.60;99.90
7388;DHT22;3735;50.136;11.062;2023-04-24T03:40:10;10.70;99.90
7388;DHT22;3735;50.136;11.062;2023-04-24T03:42:36;10.80;99.90
7388;DHT22;3735;50.136;11.062;2023-04-24T03:45:02;10.80;99.90
7388;DHT22;3735;50.136;11.062;2023-04-24T03:47:28;10.80;99.90
7388;DHT22;3735;50.136;11.062;2023-04-24T03:49:53;10.90;99.90
7388;DHT22;3735;50.136;11.062;2023-04-24T03:52:21;10.90;99.90
7388;DHT22;3735;50.136;11.062;2023-04-24T03:54:46;10.90;99.90
7388;DHT22;3735;50.136;11.062;2023-04-24T03:57:12;10.90;99.90
7388;DHT22;3735;50.136;11.062;2023-04-24T03:59:38;10.90;99.90
7388;DHT22;3735;50.136;11.062;2023-04-24T04:02:04;10.80;99.90
7388;DHT22;3735;50.136;11.062;2023-04-24T04:04:29;10.80;99.90
7388;DHT22;3735;50.136;11.062;2023-04-24T04:06:55;10.80;99.90
7388;DHT22;3735;50.136;11.062;2023-04-24T04:09:22;10.80;99.90
7388;DHT22;3735;50.136;11.062;2023-04-24T04:11:47;10.80;99.90
7388;DHT22;3735;50.136;11.062;2023-04-24T04:14:13;10.80;99.90
7388;DHT22;3735;50.136;11.062;2023-04-24T04:16:39;10.90;99.90
7388;DHT22;3735;50.136;11.062;2023-04-24T04:19:05;11.00;99.90
7388;DHT22;3735;50.136;11.062;2023-04-24T04:21:30;11.00;99.90
7388;DHT22;3735;50.136;11.062;2023-04-24T04:23:57;11.00;99.90
7388;DHT22;3735;50.136;11.062;2023-04-24T04:26:23;11.00;99.90
7388;DHT22;3735;50.136;11.062;2023-04-24T04:28:51;11.00;99.90
7388;DHT22;3735;50.136;11.062;2023-04-24T04:31:18;11.00;99.90
7388;DHT22;3735;50.136;11.062;2023-04-24T04:33:45;11.00;99.90
7388;DHT22;3735;50.136;11.062;2023-04-24T04:36:11;11.00;99.90
7388;DHT22;3735;50.136;11.062;2023-04-24T04:38:37;11.00;99.90
7388;DHT22;3735;50.136;11.062;2023-04-24T04:41:03;10.90;99.90
7388;DHT22;3735;50.136;11.062;2023-04-24T04:43:29;10.90;99.90
7388;DHT22;3735;50.136;11.062;2023-04-24T04:45:57;11.00;99.90
7388;DHT22;3735;50.136;11.062;2023-04-24T04:48:23;11.00;99.90
7388;DHT22;3735;50.136;11.062;2023-04-24T04:50:49;11.00;99.90
7388;DHT22;3735;50.136;11.062;2023-04-24T04:53:15;11.00;99.90
7388;DHT22;3735;50.136;11.062;2023-04-24T04:55:41;11.00;99.90
7388;DHT22;3735;50.136;11.062;2023-04-24T04:58:07;11.10;99.90
7388;DHT22;3735;50.136;11.062;2023-04-24T05:00:33;11.10;99.90
7388;DHT22;3735;50.136;11.062;2023-04-24T05:03:01;11.10;99.90
7388;DHT22;3735;50.136;11.062;2023-04-24T05:05:28;11.10;99.90
7388;DHT22;3735;50.136;11.062;2023-04-24T05:07:54;11.10;99.90
7388;DHT22;3735;50.136;11.062;2023-04-24T05:10:19;11.10;99.90
7388;DHT22;3735;50.136;11.062;2023-04-24T05:12:45;11.20;99.90
7388;DHT22;3735;50.136;11.062;2023-04-24T05:15:11;11.20;99.90
7388;DHT22;3735;50.136;11.062;2023-04-24T05:17:37;11.30;99.90
7388;DHT22;3735;50.136;11.062;2023-04-24T05:20:05;11.30;99.90
7388;DHT22;3735;50.136;11.062;2023-04-24T05:22:32;11.30;99.90
7388;DHT22;3735;50.136;11.062;2023-04-24T05:24:57;11.40;99.90
7388;DHT22;3735;50.136;11.062;2023-04-24T05:27:24;11.50;99.90
7388;DHT22;3735;50.136;11.062;2023-04-24T05:29:50;11.60;99.90
7388;DHT22;3735;50.136;11.062;2023-04-24T05:32:16;11.60;99.90
7388;DHT22;3735;50.136;11.062;2023-04-24T05:34:42;11.70;99.90
7388;DHT22;3735;50.136;11.062;2023-04-24T05:37:07;11.70;99.90
7388;DHT22;3735;50.136;11.062;2023-04-24T05:39:35;11.70;99.90
7388;DHT22;3735;50.136;11.062;2023-04-24T05:42:02;11.70;99.90
7388;DHT22;3735;50.136;11.062;2023-04-24T05:44:29;11.70;99.90
7388;DHT22;3735;50.136;11.062;2023-04-24T05:46:56;11.70;99.90
7388;DHT22;3735;50.136;11.062;2023-04-24T05:49:22;11.70;99.90
7388;DHT22;3735;50.136;11.062;2023-04-24T05:51:48;11.70;99.90
7388;DHT22;3735;50.136;11.062;2023-04-24T05:54:13;11.70;99.90
7388;DHT22;3735;50.136;11.062;2023-04-24T05:56:40;11.70;99.90
7388;DHT22;3735;50.136;11.062;2023-04-24T05:59:06;11.80;99.90
7388;DHT22;3735;50.136;11.062;2023-04-24T06:01:31;11.80;99.90
7388;DHT22;3735;50.136;11.062;2023-04-24T06:03:57;11.80;99.90
7388;DHT22;3735;50.136;11.062;2023-04-24T06:06:24;11.80;99.90
7388;DHT22;3735;50.136;11.062;2023-04-24T06:08:51;11.80;99.90
7388;DHT22;3735;50.136;11.062;2023-04-24T06:11:17;11.80;99.90
7388;DHT22;3735;50.136;11.062;2023-04-24T06:13:42;11.80;99.90
7388;DHT22;3735;50.136;11.062;2023-04-24T06:16:08;11.80;99.90
7388;DHT22;3735;50.136;11.062;2023-04-24T06:18:34;11.80;99.90
7388;DHT22;3735;50.136;11.062;2023-04-24T06:21:00;11.90;99.90
7388;DHT22;3735;50.136;11.062;2023-04-24T06:23:26;11.90;99.90
7388;DHT22;3735;50.136;11.062;2023-04-24T06:25:52;11.90;99.90
7388;DHT22;3735;50.136;11.062;2023-04-24T06:28:18;11.80;99.90
7388;DHT22;3735;50.136;11.062;2023-04-24T06:30:44;11.70;99.90
7388;DHT22;3735;50.136;11.062;2023-04-24T06:33:09;11.50;99.90
7388;DHT22;3735;50.136;11.062;2023-04-24T06:35:36;11.40;99.90
7388;DHT22;3735;50.136;11.062;2023-04-24T06:38:03;11.10;99.90
7388;DHT22;3735;50.136;11.062;2023-04-24T06:40:29;10.80;99.90
7388;DHT22;3735;50.136;11.062;2023-04-24T06:42:55;10.70;99.90
7388;DHT22;3735;50.136;11.062;2023-04-24T06:45:23;10.50;99.90
7388;DHT22;3735;50.136;11.062;2023-04-24T06:47:48;10.50;99.90
7388;DHT22;3735;50.136;11.062;2023-04-24T06:50:14;10.40;99.90
7388;DHT22;3735;50.136;11.062;2023-04-24T06:52:40;10.40;99.90
7388;DHT22;3735;50.136;11.062;2023-04-24T06:55:07;10.50;99.90
7388;DHT22;3735;50.136;11.062;2023-04-24T06:57:33;10.50;99.90
7388;DHT22;3735;50.136;11.062;2023-04-24T06:59:58;10.60;99.90
7388;DHT22;3735;50.136;11.062;2023-04-24T07:02:25;10.60;99.90
7388;DHT22;3735;50.136;11.062;2023-04-24T07:04:51;10.70;99.90
7388;DHT22;3735;50.136;11.062;2023-04-24T07:07:18;10.80;99.90
7388;DHT22;3735;50.136;11.062;2023-04-24T07:09:43;11.00;99.90
7388;DHT22;3735;50.136;11.062;2023-04-24T07:12:11;11.30;99.90
7388;DHT22;3735;50.136;11.062;2023-04-24T07:14:37;11.70;99.90
7388;DHT22;3735;50.136;11.062;2023-04-24T07:17:06;11.90;99.90
7388;DHT22;3735;50.136;11.062;2023-04-24T07:19:35;11.90;99.90
7388;DHT22;3735;50.136;11.062;2023-04-24T07:22:01;12.00;99.90
7388;DHT22;3735;50.136;11.062;2023-04-24T07:24:27;12.10;99.90
7388;DHT22;3735;50.136;11.062;2023-04-24T07:26:54;12.00;99.90
7388;DHT22;3735;50.136;11.062;2023-04-24T07:29:20;12.00;99.90
7388;DHT22;3735;50.136;11.062;2023-04-24T07:31:46;12.10;99.90
7388;DHT22;3735;50.136;11.062;2023-04-24T07:34:12;12.10;99.90
7388;DHT22;3735;50.136;11.062;2023-04-24T07:36:38;12.10;99.90
7388;DHT22;3735;50.136;11.062;2023-04-24T07:39:05;12.00;99.90
7388;DHT22;3735;50.136;11.062;2023-04-24T07:41:31;11.90;99.90
7388;DHT22;3735;50.136;11.062;2023-04-24T07:43:57;12.30;99.90
7388;DHT22;3735;50.136;11.062;2023-04-24T07:46:23;12.80;99.90
7388;DHT22;3735;50.136;11.062;2023-04-24T07:48:50;13.90;99.90
7388;DHT22;3735;50.136;11.062;2023-04-24T07:51:16;15.40;99.90
7388;DHT22;3735;50.136;11.062;2023-04-24T07:53:43;17.30;99.90
7388;DHT22;3735;50.136;11.062;2023-04-24T07:56:09;18.70;99.90
7388;DHT22;3735;50.136;11.062;2023-04-24T07:58:35;18.10;99.90
7388;DHT22;3735;50.136;11.062;2023-04-24T08:01:01;17.00;99.90
7388;DHT22;3735;50.136;11.062;2023-04-24T08:03:26;15.70;99.90
7388;DHT22;3735;50.136;11.062;2023-04-24T08:05:52;15.00;99.90
7388;DHT22;3735;50.136;11.062;2023-04-24T08:08:21;14.60;99.90
7388;DHT22;3735;50.136;11.062;2023-04-24T08:10:48;14.30;99.90
7388;DHT22;3735;50.136;11.062;2023-04-24T08:13:15;13.90;99.90
7388;DHT22;3735;50.136;11.062;2023-04-24T08:15:41;13.50;99.90
7388;DHT22;3735;50.136;11.062;2023-04-24T08:18:07;13.50;99.90
7388;DHT22;3735;50.136;11.062;2023-04-24T08:20:32;14.20;99.90
7388;DHT22;3735;50.136;11.062;2023-04-24T08:22:58;16.00;99.90
7388;DHT22;3735;50.136;11.062;2023-04-24T08:25:24;16.90;99.90
7388;DHT22;3735;50.136;11.062;2023-04-24T08:27:51;17.90;99.90
7388;DHT22;3735;50.136;11.062;2023-04-24T08:30:17;19.10;99.90
7388;DHT22;3735;50.136;11.062;2023-04-24T08:32:43;19.30;99.90
7388;DHT22;3735;50.136;11.062;2023-04-24T08:35:09;18.20;99.90
7388;DHT22;3735;50.136;11.062;2023-04-24T08:37:36;18.20;99.90
7388;DHT22;3735;50.136;11.062;2023-04-24T08:40:16;18.80;99.90
7388;DHT22;3735;50.136;11.062;2023-04-24T08:42:45;19.80;99.90
7388;DHT22;3735;50.136;11.062;2023-04-24T08:45:13;18.70;99.90
7388;DHT22;3735;50.136;11.062;2023-04-24T08:47:40;17.80;99.90
7388;DHT22;3735;50.136;11.062;2023-04-24T08:50:08;16.40;99.90
7388;DHT22;3735;50.136;11.062;2023-04-24T08:52:35;15.20;99.90
7388;DHT22;3735;50.136;11.062;2023-04-24T08:55:01;14.60;99.90
7388;DHT22;3735;50.136;11.062;2023-04-24T08:57:28;14.30;99.90
7388;DHT22;3735;50.136;11.062;2023-04-24T08:59:55;14.10;99.90
7388;DHT22;3735;50.136;11.062;2023-04-24T09:02:23;14.40;99.90
7388;DHT22;3735;50.136;11.062;2023-04-24T09:04:49;14.30;99.90
7388;DHT22;3735;50.136;11.062;2023-04-24T09:07:18;13.90;99.90
7388;DHT22;3735;50.136;11.062;2023-04-24T09:09:45;13.70;99.90
7388;DHT22;3735;50.136;11.062;2023-04-24T09:12:12;13.70;99.90
7388;DHT22;3735;50.136;11.062;2023-04-24T09:14:38;13.70;99.90
7388;DHT22;3735;50.136;11.062;2023-04-24T09:17:08;13.90;99.90
7388;DHT22;3735;50.136;11.062;2023-04-24T09:19:34;13.80;99.90
7388;DHT22;3735;50.136;11.062;2023-04-24T09:21:59;13.70;99.90
7388;DHT22;3735;50.136;11.062;2023-04-24T09:24:30;13.70;99.90
7388;DHT22;3735;50.136;11.062;2023-04-24T09:26:57;14.00;99.90
7388;DHT22;3735;50.136;11.062;2023-04-24T09:29:24;14.60;99.90
7388;DHT22;3735;50.136;11.062;2023-04-24T09:31:50;15.00;99.90
7388;DHT22;3735;50.136;11.062;2023-04-24T09:34:24;15.10;99.90
7388;DHT22;3735;50.136;11.062;2023-04-24T09:36:52;14.70;99.90
7388;DHT22;3735;50.136;11.062;2023-04-24T09:39:19;14.40;99.90
7388;DHT22;3735;50.136;11.062;2023-04-24T09:41:52;14.20;99.90
7388;DHT22;3735;50.136;11.062;2023-04-24T09:44:24;14.20;99.90
7388;DHT22;3735;50.136;11.062;2023-04-24T09:46:58;14.30;99.90
7388;DHT22;3735;50.136;11.062;2023-04-24T09:54:30;15.30;99.90
7388;DHT22;3735;50.136;11.062;2023-04-24T09:56:55;15.30;99.90
7388;DHT22;3735;50.136;11.062;2023-04-24T09:59:22;15.00;99.90
7388;DHT22;3735;50.136;11.062;2023-04-24T10:01:48;14.90;99.90
7388;DHT22;3735;50.136;11.062;2023-04-24T10:06:46;14.20;99.90
7388;DHT22;3735;50.136;11.062;2023-04-24T10:09:14;13.70;99.90
7388;DHT22;3735;50.136;11.062;2023-04-24T10:11:45;13.40;99.90
7388;DHT22;3735;50.136;11.062;2023-04-24T10:14:15;13.30;99.90
7388;DHT22;3735;50.136;11.062;2023-04-24T10:16:48;13.30;99.90
7388;DHT22;3735;50.136;11.062;2023-04-24T10:19:15;13.40;99.90
7388;DHT22;3735;50.136;11.062;2023-04-24T10:21:44;13.50;99.90
7388;DHT22;3735;50.136;11.062;2023-04-24T10:24:17;13.90;99.90
7388;DHT22;3735;50.136;11.062;2023-04-24T10:26:45;14.50;99.90
7388;DHT22;3735;50.136;11.062;2023-04-24T10:29:13;15.20;99.90
7388;DHT22;3735;50.136;11.062;2023-04-24T10:31:40;15.10;99.90
7388;DHT22;3735;50.136;11.062;2023-04-24T10:34:09;14.60;99.90
7388;DHT22;3735;50.136;11.062;2023-04-24T10:36:38;14.40;99.90
7388;DHT22;3735;50.136;11.062;2023-04-24T10:39:11;14.70;99.90
7388;DHT22;3735;50.136;11.062;2023-04-24T10:41:39;14.80;99.90
7388;DHT22;3735;50.136;11.062;2023-04-24T10:44:09;15.00;99.90
7388;DHT22;3735;50.136;11.062;2023-04-24T10:46:37;15.20;99.90
7388;DHT22;3735;50.136;11.062;2023-04-24T10:49:07;15.20;99.90
7388;DHT22;3735;50.136;11.062;2023-04-24T10:51:48;14.90;99.90
7388;DHT22;3735;50.136;11.062;2023-04-24T10:54:34;14.90;99.90
7388;DHT22;3735;50.136;11.062;2023-04-24T11:02:40;15.30;99.90
7388;DHT22;3735;50.136;11.062;2023-04-24T11:05:15;15.60;99.90
7388;DHT22;3735;50.136;11.062;2023-04-24T11:08:11;15.70;99.90
7388;DHT22;3735;50.136;11.062;2023-04-24T11:10:40;15.50;99.90
7388;DHT22;3735;50.136;11.062;2023-04-24T11:13:09;15.20;99.90
7388;DHT22;3735;50.136;11.062;2023-04-24T11:15:35;15.00;99.90
7388;DHT22;3735;50.136;11.062;2023-04-24T11:18:01;14.60;99.90
7388;DHT22;3735;50.136;11.062;2023-04-24T11:20:27;14.10;99.90
7388;DHT22;3735;50.136;11.062;2023-04-24T11:22:54;13.60;99.90
7388;DHT22;3735;50.136;11.062;2023-04-24T11:25:21;13.50;99.90
7388;DHT22;3735;50.136;11.062;2023-04-24T11:28:03;13.50;99.90
7388;DHT22;3735;50.136;11.062;2023-04-24T11:30:32;13.50;99.90
7388;DHT22;3735;50.136;11.062;2023-04-24T11:33:02;13.50;99.90
7388;DHT22;3735;50.136;11.062;2023-04-24T11:35:29;13.50;99.90
7388;DHT22;3735;50.136;11.062;2023-04-24T11:38:00;13.50;99.90
7388;DHT22;3735;50.136;11.062;2023-04-24T11:40:28;13.60;99.90
7388;DHT22;3735;50.136;11.062;2023-04-24T11:42:54;13.80;99.90
7388;DHT22;3735;50.136;11.062;2023-04-24T11:45:27;14.00;99.90
7388;DHT22;3735;50.136;11.062;2023-04-24T11:47:54;14.10;99.90
7388;DHT22;3735;50.136;11.062;2023-04-24T11:50:22;14.50;99.90
7388;DHT22;3735;50.136;11.062;2023-04-24T11:52:51;14.70;99.90
7388;DHT22;3735;50.136;11.062;2023-04-24T11:57:48;14.70;99.90
7388;DHT22;3735;50.136;11.062;2023-04-24T12:00:20;14.70;99.90
7388;DHT22;3735;50.136;11.062;2023-04-24T12:02:47;14.60;99.90
7388;DHT22;3735;50.136;11.062;2023-04-24T12:05:20;14.80;99.90
7388;DHT22;3735;50.136;11.062;2023-04-24T12:07:46;14.90;99.90
7388;DHT22;3735;50.136;11.062;2023-04-24T12:10:12;14.60;99.90
7388;DHT22;3735;50.136;11.062;2023-04-24T12:12:38;14.10;99.90
7388;DHT22;3735;50.136;11.062;2023-04-24T12:15:08;13.90;99.90
7388;DHT22;3735;50.136;11.062;2023-04-24T12:17:35;13.70;99.90
7388;DHT22;3735;50.136;11.062;2023-04-24T12:20:06;13.50;99.90
7388;DHT22;3735;50.136;11.062;2023-04-24T12:22:53;13.20;99.90
7388;DHT22;3735;50.136;11.062;2023-04-24T12:25:26;12.80;99.90
7388;DHT22;3735;50.136;11.062;2023-04-24T12:28:10;12.70;99.90
7388;DHT22;3735;50.136;11.062;2023-04-24T12:30:47;12.60;99.90
7388;DHT22;3735;50.136;11.062;2023-04-24T12:33:21;12.40;99.90
7388;DHT22;3735;50.136;11.062;2023-04-24T12:35:48;12.40;99.90
7388;DHT22;3735;50.136;11.062;2023-04-24T12:38:22;12.50;99.90
7388;DHT22;3735;50.136;11.062;2023-04-24T12:41:19;12.90;99.90
7388;DHT22;3735;50.136;11.062;2023-04-24T12:43:52;13.40;99.90
7388;DHT22;3735;50.136;11.062;2023-04-24T12:46:18;14.00;99.90
7388;DHT22;3735;50.136;11.062;2023-04-24T12:48:44;14.50;99.90
7388;DHT22;3735;50.136;11.062;2023-04-24T12:51:10;14.90;99.90
7388;DHT22;3735;50.136;11.062;2023-04-24T12:53:36;15.00;99.90
7388;DHT22;3735;50.136;11.062;2023-04-24T12:56:01;15.10;99.90
7388;DHT22;3735;50.136;11.062;2023-04-24T12:58:27;14.80;99.90
7388;DHT22;3735;50.136;11.062;2023-04-24T13:00:53;14.40;99.90
7388;DHT22;3735;50.136;11.062;2023-04-24T13:03:19;14.20;99.90
7388;DHT22;3735;50.136;11.062;2023-04-24T13:05:45;14.30;99.90
7388;DHT22;3735;50.136;11.062;2023-04-24T13:08:11;14.90;99.90
7388;DHT22;3735;50.136;11.062;2023-04-24T13:10:38;16.50;99.90
7388;DHT22;3735;50.136;11.062;2023-04-24T13:13:05;17.90;99.90
7388;DHT22;3735;50.136;11.062;2023-04-24T13:15:31;19.50;99.90
7388;DHT22;3735;50.136;11.062;2023-04-24T13:17:56;18.70;99.90
7388;DHT22;3735;50.136;11.062;2023-04-24T13:20:22;17.60;99.90
7388;DHT22;3735;50.136;11.062;2023-04-24T13:22:48;16.50;99.90
7388;DHT22;3735;50.136;11.062;2023-04-24T13:25:14;15.60;99.90
7388;DHT22;3735;50.136;11.062;2023-04-24T13:27:42;14.80;99.90
7388;DHT22;3735;50.136;11.062;2023-04-24T13:30:08;14.10;99.90
7388;DHT22;3735;50.136;11.062;2023-04-24T13:32:34;13.60;99.90
7388;DHT22;3735;50.136;11.062;2023-04-24T13:35:00;13.40;99.90
7388;DHT22;3735;50.136;11.062;2023-04-24T13:37:26;13.40;99.90
7388;DHT22;3735;50.136;11.062;2023-04-24T13:39:52;13.70;99.90
7388;DHT22;3735;50.136;11.062;2023-04-24T13:42:18;14.20;99.90
7388;DHT22;3735;50.136;11.062;2023-04-24T13:44:44;14.30;99.90
7388;DHT22;3735;50.136;11.062;2023-04-24T13:47:10;14.20;99.90
7388;DHT22;3735;50.136;11.062;2023-04-24T13:49:35;14.30;99.90
7388;DHT22;3735;50.136;11.062;2023-04-24T13:52:02;14.20;99.90
7388;DHT22;3735;50.136;11.062;2023-04-24T13:54:28;14.10;99.90
7388;DHT22;3735;50.136;11.062;2023-04-24T13:56:57;13.80;99.90
7388;DHT22;3735;50.136;11.062;2023-04-24T13:59:23;13.50;99.90
7388;DHT22;3735;50.136;11.062;2023-04-24T14:01:49;13.20;99.90
7388;DHT22;3735;50.136;11.062;2023-04-24T14:04:15;12.90;99.90
7388;DHT22;3735;50.136;11.062;2023-04-24T14:06:41;12.70;99.90
7388;DHT22;3735;50.136;11.062;2023-04-24T14:09:06;12.50;99.90
7388;DHT22;3735;50.136;11.062;2023-04-24T14:11:33;13.00;99.90
7388;DHT22;3735;50.136;11.062;2023-04-24T14:14:02;15.10;99.90
7388;DHT22;3735;50.136;11.062;2023-04-24T14:16:28;17.20;99.90
7388;DHT22;3735;50.136;11.062;2023-04-24T14:18:55;17.00;99.90
7388;DHT22;3735;50.136;11.062;2023-04-24T14:21:21;15.70;99.90
7388;DHT22;3735;50.136;11.062;2023-04-24T14:23:47;14.70;99.90
7388;DHT22;3735;50.136;11.062;2023-04-24T14:26:13;14.00;99.90
7388;DHT22;3735;50.136;11.062;2023-04-24T14:28:38;13.40;99.90
7388;DHT22;3735;50.136;11.062;2023-04-24T14:31:05;13.40;99.90
7388;DHT22;3735;50.136;11.062;2023-04-24T14:33:30;13.60;99.90
7388;DHT22;3735;50.136;11.062;2023-04-24T14:35:56;13.50;99.90
7388;DHT22;3735;50.136;11.062;2023-04-24T14:38:22;13.50;99.90
7388;DHT22;3735;50.136;11.062;2023-04-24T14:40:48;13.40;99.90
7388;DHT22;3735;50.136;11.062;2023-04-24T14:43:14;13.40;99.90
7388;DHT22;3735;50.136;11.062;2023-04-24T14:45:40;13.30;99.90
7388;DHT22;3735;50.136;11.062;2023-04-24T14:48:07;13.20;99.90
7388;DHT22;3735;50.136;11.062;2023-04-24T14:50:33;13.10;99.90
7388;DHT22;3735;50.136;11.062;2023-04-24T14:52:59;13.20;99.90
7388;DHT22;3735;50.136;11.062;2023-04-24T14:55:27;13.40;99.90
7388;DHT22;3735;50.136;11.062;2023-04-24T14:57:54;13.50;99.90
7388;DHT22;3735;50.136;11.062;2023-04-24T15:00:20;13.60;99.90
7388;DHT22;3735;50.136;11.062;2023-04-24T15:02:48;13.60;99.90
7388;DHT22;3735;50.136;11.062;2023-04-24T15:05:14;13.70;99.90
7388;DHT22;3735;50.136;11.062;2023-04-24T15:07:40;13.70;99.90
7388;DHT22;3735;50.136;11.062;2023-04-24T15:10:07;13.70;99.90
7388;DHT22;3735;50.136;11.062;2023-04-24T15:12:33;14.40;99.90
7388;DHT22;3735;50.136;11.062;2023-04-24T15:14:59;15.10;99.90
7388;DHT22;3735;50.136;11.062;2023-04-24T15:17:26;15.20;99.90
7388;DHT22;3735;50.136;11.062;2023-04-24T15:19:52;15.70;99.90
7388;DHT22;3735;50.136;11.062;2023-04-24T15:22:18;15.30;99.90
7388;DHT22;3735;50.136;11.062;2023-04-24T15:24:43;15.70;99.90
7388;DHT22;3735;50.136;11.062;2023-04-24T15:27:10;16.10;99.90
7388;DHT22;3735;50.136;11.062;2023-04-24T15:29:36;14.90;99.90
7388;DHT22;3735;50.136;11.062;2023-04-24T15:32:03;14.20;99.90
7388;DHT22;3735;50.136;11.062;2023-04-24T15:34:28;14.00;99.90
7388;DHT22;3735;50.136;11.062;2023-04-24T15:36:54;13.70;99.90
7388;DHT22;3735;50.136;11.062;2023-04-24T15:39:23;13.60;99.90
7388;DHT22;3735;50.136;11.062;2023-04-24T15:41:49;13.30;99.90
7388;DHT22;3735;50.136;11.062;2023-04-24T15:44:16;13.40;99.90
7388;DHT22;3735;50.136;11.062;2023-04-24T15:46:42;14.10;99.90
7388;DHT22;3735;50.136;11.062;2023-04-24T15:49:07;15.70;99.90
7388;DHT22;3735;50.136;11.062;2023-04-24T15:51:33;15.60;99.90
7388;DHT22;3735;50.136;11.062;2023-04-24T15:53:59;14.90;99.90
7388;DHT22;3735;50.136;11.062;2023-04-24T15:56:25;14.20;99.90
7388;DHT22;3735;50.136;11.062;2023-04-24T15:58:51;13.60;99.90
7388;DHT22;3735;50.136;11.062;2023-04-24T16:01:17;13.40;99.90